Terminal Aerodrome Forecast
Issued by NWS

Home | Current Version | Previous Version | Text Only | Print | Product List | Glossary On
Versions: 1 2 3 4 5 6 7 8 9 10 11 12 13 14 15 16 17 18 19 20
000
FTAK31 PAJN 291100
TAFAKT
TAF
PAKT 291120Z 2912/3012 14005KT 3SM -RA BR SCT006 BKN009 OVC015
      TEMPO 2912/2916 2SM -RA BR BKN004 OVC015
     FM291800 14008KT 4SM -RA BR SCT010 BKN015 OVC025
     FM292200 14008KT P6SM -SHRA SCT025 OVC050
     FM300600 14006KT P6SM VCSH BKN050
      AMD LTD TO CLD VIS AND WIND 2912/2915=

USA.gov is the U.S. government's official web portal to all federal, state and local government web resources and services.